Sunflower Gold — JD2460 — position and weather

sailwx.info

Track history (hours):
 
Tides and Currents Weather Stations Pressure Air Temp Water Temp Dewpoint Dewpoint Depression Visibility Wind Speed Wind Dir Waves Ship Positions

Sunflower Gold

Last reported at 2014-Oct-31 12:25 UTC. Time now 2014-Nov-01 11:55 UTC.
Position N 34°35' E 134°51'.

Length 166 m; draft 5.8 m.

Type: Passenger vessel. MMSI: 431000331.

Date/timePositionNaut miles runAvg speedWind from/ knotsBaromVisibWave heightAir tempDewpointWater temp
2014-Oct-31 12:25N 34°35' E 134°51'1719.9
2014-Oct-31 11:33N 34°36' E 135°12'7 6.2
2014-Oct-31 10:29N 34°42' E 135°17'0 0.0
2014-Oct-31 09:26N 34°42' E 135°17'0 0.0
2014-Oct-31 08:32N 34°42' E 135°17'0 0.0
2014-Oct-31 07:32N 34°42' E 135°17'0 0.0
2014-Oct-31 06:32N 34°42' E 135°17'0 0.0
2014-Oct-31 05:32N 34°42' E 135°17'0 0.0
2014-Oct-31 04:32N 34°42' E 135°17'0 0.0
2014-Oct-31 03:32N 34°42' E 135°17'0 0.0
2014-Oct-31 02:32N 34°42' E 135°17'0 0.0
2014-Oct-31 01:32N 34°42' E 135°17'0 0.0
2014-Oct-31 00:26N 34°42' E 135°17'0 0.0
2014-Oct-30 23:32N 34°42' E 135°17'0 0.0
2014-Oct-30 22:20N 34°42' E 135°17'0 0.0
2014-Oct-30 21:33N 34°42' E 135°17'1111.1
2014-Oct-30 20:33N 34°34' E 135°07'12618.0
2014-Oct-30 13:33N 33°57' E 132°42'5 0.3
2014-Oct-29 17:33N 34°01' E 132°45'10717.8
2014-Oct-29 11:33N 34°34' E 134°49'1919.6
2014-Oct-29 10:33N 34°37' E 135°12'7 6.4
2014-Oct-29 09:31N 34°42' E 135°17'0 0.0
2014-Oct-29 08:31N 34°42' E 135°17'0 0.0
2014-Oct-29 07:25N 34°42' E 135°17'0 0.0
2014-Oct-29 06:19N 34°42' E 135°17'0 0.0
2014-Oct-29 05:31N 34°42' E 135°17'0 0.0
2014-Oct-29 04:31N 34°42' E 135°17'0 0.0
2014-Oct-29 03:31N 34°42' E 135°17'0 0.0
2014-Oct-29 02:31N 34°42' E 135°17'0 0.0
2014-Oct-29 01:25N 34°42' E 135°17'0 0.0
2014-Oct-29 00:31N 34°42' E 135°17'0 0.0
2014-Oct-28 23:31N 34°42' E 135°17'0 0.0
2014-Oct-28 22:31N 34°42' E 135°17'0 0.0
2014-Oct-28 21:33N 34°42' E 135°17'1110.7
2014-Oct-28 20:34N 34°35' E 135°07'13 0.4
2014-Oct-27 11:28N 34°35' E 134°50'1718.8
2014-Oct-27 10:33N 34°36' E 135°11'7 5.7
2014-Oct-27 09:18N 34°42' E 135°17'0 0.0
2014-Oct-27 08:30N 34°42' E 135°17'0 0.0
2014-Oct-27 07:12N 34°42' E 135°17'0 0.0
2014-Oct-27 06:30N 34°42' E 135°17'0 0.0
2014-Oct-27 05:30N 34°42' E 135°17'0 0.0
2014-Oct-27 04:30N 34°42' E 135°17'0 0.0
2014-Oct-27 03:18N 34°42' E 135°17'0 0.0
2014-Oct-27 02:30N 34°42' E 135°17'0 0.0
2014-Oct-27 01:30N 34°42' E 135°17'0 0.0
2014-Oct-27 00:30N 34°42' E 135°17'0 0.0
2014-Oct-26 23:24N 34°42' E 135°17'0 0.0
2014-Oct-26 22:30N 34°42' E 135°17'0 0.0
2014-Oct-26 21:33N 34°42' E 135°17'1312.5
2014-Oct-26 20:33N 34°35' E 135°04'11 0.3
2014-Oct-25 12:17N 34°35' E 134°51'1419.7
2014-Oct-25 11:33N 34°36' E 135°08'9 8.9
2014-Oct-25 10:29N 34°42' E 135°17'0 0.0
2014-Oct-25 09:29N 34°42' E 135°17'0 0.0
2014-Oct-25 08:23N 34°42' E 135°17'0 0.0
2014-Oct-25 07:29N 34°42' E 135°17'0 0.0
2014-Oct-25 06:29N 34°42' E 135°17'0 0.0
2014-Oct-25 05:29N 34°42' E 135°17'0 0.0
2014-Oct-25 04:23N 34°42' E 135°17'0 0.0
2014-Oct-25 03:29N 34°42' E 135°17'0 0.0
2014-Oct-25 02:29N 34°42' E 135°17'0 0.0
2014-Oct-25 01:29N 34°42' E 135°17'0 0.0
2014-Oct-25 00:29N 34°42' E 135°17'0 0.0
2014-Oct-24 23:29N 34°42' E 135°17'2 2.3
2014-Oct-24 22:33N 34°40' E 135°18'1515.0
2014-Oct-24 21:32N 34°37' E 134°60'11916.3
2014-Oct-24 14:13N 33°58' E 132°44'4 0.2
2014-Oct-23 17:32N 34°02' E 132°46'10817.7
2014-Oct-23 11:24N 34°35' E 134°51'1720.5
2014-Oct-23 10:33N 34°36' E 135°12'7 6.3
2014-Oct-23 09:28N 34°42' E 135°17'0 0.0
2014-Oct-23 08:16N 34°42' E 135°17'0 0.0
2014-Oct-23 07:28N 34°42' E 135°17'0 0.0
2014-Oct-23 06:28N 34°42' E 135°17'0 0.0
2014-Oct-23 05:22N 34°42' E 135°17'0 0.0
2014-Oct-23 04:28N 34°42' E 135°17'0 0.0
2014-Oct-23 03:28N 34°42' E 135°17'0 0.0
2014-Oct-23 02:28N 34°42' E 135°17'0 0.0
2014-Oct-23 01:28N 34°42' E 135°17'0 0.0
2014-Oct-23 00:28N 34°42' E 135°17'0 0.0
2014-Oct-22 23:28N 34°42' E 135°17'0 0.0
2014-Oct-22 22:28N 34°42' E 135°17'0 0.0
2014-Oct-22 21:33N 34°42' E 135°17'1212.6
2014-Oct-22 20:33N 34°35' E 135°04'2118.6
2014-Oct-22 19:27N 34°29' E 134°40'102 3.9
2014-Oct-21 17:33N 33°58' E 132°43'  
Track history (hours):
 
Tides and Currents Weather Stations Pressure Air Temp Water Temp Dewpoint Dewpoint Depression Visibility Wind Speed Wind Dir Waves Ship Positions

Sunflower Gold

Last reported at 2014-Oct-31 12:25 UTC. Time now 2014-Nov-01 11:55 UTC.
Position N 34°35' E 134°51'.

Length 166 m; draft 5.8 m.

Type: Passenger vessel. MMSI: 431000331.

Date/timePositionNaut miles runAvg speedWind from/ knotsBaromVisibWave heightAir tempDewpointWater temp
2014-Oct-31 12:25N 34°35' E 134°51'1719.9
2014-Oct-31 11:33N 34°36' E 135°12'7 6.2
2014-Oct-31 10:29N 34°42' E 135°17'0 0.0
2014-Oct-31 09:26N 34°42' E 135°17'0 0.0
2014-Oct-31 08:32N 34°42' E 135°17'0 0.0
2014-Oct-31 07:32N 34°42' E 135°17'0 0.0
2014-Oct-31 06:32N 34°42' E 135°17'0 0.0
2014-Oct-31 05:32N 34°42' E 135°17'0 0.0
2014-Oct-31 04:32N 34°42' E 135°17'0 0.0
2014-Oct-31 03:32N 34°42' E 135°17'0 0.0
2014-Oct-31 02:32N 34°42' E 135°17'0 0.0
2014-Oct-31 01:32N 34°42' E 135°17'0 0.0
2014-Oct-31 00:26N 34°42' E 135°17'0 0.0
2014-Oct-30 23:32N 34°42' E 135°17'0 0.0
2014-Oct-30 22:20N 34°42' E 135°17'0 0.0
2014-Oct-30 21:33N 34°42' E 135°17'1111.1
2014-Oct-30 20:33N 34°34' E 135°07'12618.0
2014-Oct-30 13:33N 33°57' E 132°42'5 0.3
2014-Oct-29 17:33N 34°01' E 132°45'10717.8
2014-Oct-29 11:33N 34°34' E 134°49'1919.6
2014-Oct-29 10:33N 34°37' E 135°12'7 6.4
2014-Oct-29 09:31N 34°42' E 135°17'0 0.0
2014-Oct-29 08:31N 34°42' E 135°17'0 0.0
2014-Oct-29 07:25N 34°42' E 135°17'0 0.0
2014-Oct-29 06:19N 34°42' E 135°17'0 0.0
2014-Oct-29 05:31N 34°42' E 135°17'0 0.0
2014-Oct-29 04:31N 34°42' E 135°17'0 0.0
2014-Oct-29 03:31N 34°42' E 135°17'0 0.0
2014-Oct-29 02:31N 34°42' E 135°17'0 0.0
2014-Oct-29 01:25N 34°42' E 135°17'0 0.0
2014-Oct-29 00:31N 34°42' E 135°17'0 0.0
2014-Oct-28 23:31N 34°42' E 135°17'0 0.0
2014-Oct-28 22:31N 34°42' E 135°17'0 0.0
2014-Oct-28 21:33N 34°42' E 135°17'1110.7
2014-Oct-28 20:34N 34°35' E 135°07'13 0.4
2014-Oct-27 11:28N 34°35' E 134°50'1718.8
2014-Oct-27 10:33N 34°36' E 135°11'7 5.7
2014-Oct-27 09:18N 34°42' E 135°17'0 0.0
2014-Oct-27 08:30N 34°42' E 135°17'0 0.0
2014-Oct-27 07:12N 34°42' E 135°17'0 0.0
2014-Oct-27 06:30N 34°42' E 135°17'0 0.0
2014-Oct-27 05:30N 34°42' E 135°17'0 0.0
2014-Oct-27 04:30N 34°42' E 135°17'0 0.0
2014-Oct-27 03:18N 34°42' E 135°17'0 0.0
2014-Oct-27 02:30N 34°42' E 135°17'0 0.0
2014-Oct-27 01:30N 34°42' E 135°17'0 0.0
2014-Oct-27 00:30N 34°42' E 135°17'0 0.0
2014-Oct-26 23:24N 34°42' E 135°17'0 0.0
2014-Oct-26 22:30N 34°42' E 135°17'0 0.0
2014-Oct-26 21:33N 34°42' E 135°17'1312.5
2014-Oct-26 20:33N 34°35' E 135°04'11 0.3
2014-Oct-25 12:17N 34°35' E 134°51'1419.7
2014-Oct-25 11:33N 34°36' E 135°08'9 8.9
2014-Oct-25 10:29N 34°42' E 135°17'0 0.0
2014-Oct-25 09:29N 34°42' E 135°17'0 0.0
2014-Oct-25 08:23N 34°42' E 135°17'0 0.0
2014-Oct-25 07:29N 34°42' E 135°17'0 0.0
2014-Oct-25 06:29N 34°42' E 135°17'0 0.0
2014-Oct-25 05:29N 34°42' E 135°17'0 0.0
2014-Oct-25 04:23N 34°42' E 135°17'0 0.0
2014-Oct-25 03:29N 34°42' E 135°17'0 0.0
2014-Oct-25 02:29N 34°42' E 135°17'0 0.0
2014-Oct-25 01:29N 34°42' E 135°17'0 0.0
2014-Oct-25 00:29N 34°42' E 135°17'0 0.0
2014-Oct-24 23:29N 34°42' E 135°17'2 2.3
2014-Oct-24 22:33N 34°40' E 135°18'1515.0
2014-Oct-24 21:32N 34°37' E 134°60'11916.3
2014-Oct-24 14:13N 33°58' E 132°44'4 0.2
2014-Oct-23 17:32N 34°02' E 132°46'10817.7
2014-Oct-23 11:24N 34°35' E 134°51'1720.5
2014-Oct-23 10:33N 34°36' E 135°12'7 6.3
2014-Oct-23 09:28N 34°42' E 135°17'0 0.0
2014-Oct-23 08:16N 34°42' E 135°17'0 0.0
2014-Oct-23 07:28N 34°42' E 135°17'0 0.0
2014-Oct-23 06:28N 34°42' E 135°17'0 0.0
2014-Oct-23 05:22N 34°42' E 135°17'0 0.0
2014-Oct-23 04:28N 34°42' E 135°17'0 0.0
2014-Oct-23 03:28N 34°42' E 135°17'0 0.0
2014-Oct-23 02:28N 34°42' E 135°17'0 0.0
2014-Oct-23 01:28N 34°42' E 135°17'0 0.0
2014-Oct-23 00:28N 34°42' E 135°17'0 0.0
2014-Oct-22 23:28N 34°42' E 135°17'0 0.0
2014-Oct-22 22:28N 34°42' E 135°17'0 0.0
2014-Oct-22 21:33N 34°42' E 135°17'1212.6
2014-Oct-22 20:33N 34°35' E 135°04'2118.6
2014-Oct-22 19:27N 34°29' E 134°40'102 3.9
2014-Oct-21 17:33N 33°58' E 132°43'  

Dump ship's entire track history